createdAt,value
2023-11-13T00:01:22.292Z,9.55
2023-11-13T00:03:49.627Z,9.54
2023-11-13T00:06:16.345Z,9.54
2023-11-13T00:08:43.964Z,9.55
2023-11-13T00:11:10.802Z,9.57
2023-11-13T00:13:37.730Z,9.56
2023-11-13T00:16:04.885Z,9.51
2023-11-13T00:18:32.987Z,9.49
2023-11-13T00:21:00.303Z,9.48
2023-11-13T00:23:28.712Z,9.50
2023-11-13T00:25:55.299Z,9.53
2023-11-13T00:28:22.123Z,9.54
2023-11-13T00:30:48.832Z,9.58
2023-11-13T00:33:17.297Z,9.58
2023-11-13T00:35:45.519Z,9.61
2023-11-13T00:38:12.130Z,9.63
2023-11-13T00:40:38.711Z,9.65
2023-11-13T00:43:06.031Z,9.65
2023-11-13T00:45:33.140Z,9.66
2023-11-13T00:47:59.636Z,9.66
2023-11-13T00:50:26.178Z,9.67
2023-11-13T00:52:52.715Z,9.68
2023-11-13T00:55:19.198Z,9.74
2023-11-13T00:57:45.771Z,9.88
2023-11-13T01:00:14.491Z,10.00
2023-11-13T01:02:41.069Z,10.14
2023-11-13T01:05:08.135Z,10.26
2023-11-13T01:07:34.942Z,10.48
2023-11-13T01:10:01.543Z,10.70
2023-11-13T01:12:28.266Z,10.92
2023-11-13T01:14:54.822Z,11.13
2023-11-13T01:17:21.455Z,11.34
2023-11-13T01:19:48.009Z,11.52
2023-11-13T01:22:14.777Z,11.71
2023-11-13T01:24:41.457Z,11.86
2023-11-13T01:27:07.960Z,11.99
2023-11-13T01:29:34.430Z,12.10
2023-11-13T01:32:01.988Z,12.20
2023-11-13T01:34:28.806Z,12.25
2023-11-13T01:36:55.487Z,12.30
2023-11-13T01:39:22.069Z,12.36
2023-11-13T01:41:48.598Z,12.38
2023-11-13T01:44:15.073Z,12.37
2023-11-13T01:46:42.948Z,12.43
2023-11-13T01:49:10.438Z,12.45
2023-11-13T01:51:37.036Z,12.47
2023-11-13T01:54:04.528Z,12.47
2023-11-13T01:56:32.915Z,12.47
2023-11-13T01:59:00.435Z,12.47
2023-11-13T02:01:29.895Z,12.46
2023-11-13T02:03:56.697Z,12.49
2023-11-13T02:06:26.119Z,12.49
2023-11-13T02:08:52.650Z,12.51
2023-11-13T02:11:21.064Z,12.51
2023-11-13T02:13:49.102Z,12.48
2023-11-13T02:16:15.908Z,12.44
2023-11-13T02:18:42.550Z,12.44
2023-11-13T02:21:09.849Z,12.41
2023-11-13T02:23:36.603Z,12.38
2023-11-13T02:26:14.870Z,12.37
2023-11-13T02:28:41.528Z,12.36
2023-11-13T02:31:08.038Z,12.35
2023-11-13T02:33:34.501Z,12.34
2023-11-13T02:36:01.120Z,12.33
2023-11-13T02:38:27.616Z,12.33
2023-11-13T02:40:54.127Z,12.32
2023-11-13T02:43:20.719Z,12.29
2023-11-13T02:45:47.275Z,12.28
2023-11-13T02:48:13.833Z,12.26
2023-11-13T02:50:41.293Z,12.25
2023-11-13T02:53:07.828Z,12.24
2023-11-13T02:55:34.351Z,12.25
2023-11-13T02:58:00.917Z,12.26
2023-11-13T03:00:27.415Z,12.26
2023-11-13T03:02:53.949Z,12.24
2023-11-13T03:05:20.618Z,12.24
2023-11-13T03:07:47.345Z,12.27
2023-11-13T03:10:13.949Z,12.29
2023-11-13T03:12:41.086Z,12.32
2023-11-13T03:15:08.632Z,12.35
2023-11-13T03:17:35.189Z,12.39
2023-11-13T03:20:04.229Z,12.42
2023-11-13T03:22:31.133Z,12.45
2023-11-13T03:24:57.796Z,12.46
2023-11-13T03:27:24.356Z,12.48
2023-11-13T03:29:51.874Z,12.51
2023-11-13T03:32:19.172Z,12.53
2023-11-13T03:34:46.241Z,12.54
2023-11-13T03:37:12.795Z,12.54
2023-11-13T03:39:39.287Z,12.55
2023-11-13T03:42:05.913Z,12.54
2023-11-13T03:44:32.481Z,12.57
2023-11-13T03:46:59.015Z,12.57
2023-11-13T03:49:25.633Z,12.58
2023-11-13T03:51:52.172Z,12.61
2023-11-13T03:54:18.701Z,12.60
2023-11-13T03:56:45.229Z,12.60
2023-11-13T03:59:11.693Z,12.62
2023-11-13T04:01:38.349Z,12.64
2023-11-13T04:04:05.670Z,12.67
2023-11-13T04:06:32.304Z,12.67
2023-11-13T04:08:58.853Z,12.67
2023-11-13T04:11:25.395Z,12.70
2023-11-13T04:13:51.975Z,12.71
2023-11-13T04:16:18.686Z,12.71
2023-11-13T04:18:45.257Z,12.71
2023-11-13T04:21:11.758Z,12.74
2023-11-13T04:23:38.411Z,12.76
2023-11-13T04:26:05.583Z,12.76
2023-11-13T04:28:36.371Z,12.78
2023-11-13T04:31:04.975Z,12.78
2023-11-13T04:33:31.569Z,12.77
2023-11-13T04:36:02.340Z,12.77
2023-11-13T04:38:29.033Z,12.77
2023-11-13T04:40:55.482Z,12.78
2023-11-13T04:43:22.173Z,12.80
2023-11-13T04:45:48.849Z,12.77
2023-11-13T04:48:15.415Z,12.77
2023-11-13T04:50:41.962Z,12.75
2023-11-13T04:53:08.521Z,12.73
2023-11-13T04:55:35.065Z,12.73
2023-11-13T04:58:03.209Z,12.70
2023-11-13T05:00:29.758Z,12.69
2023-11-13T05:02:56.360Z,12.70
2023-11-13T05:05:22.871Z,12.70
2023-11-13T05:07:49.368Z,12.69
2023-11-13T05:10:15.931Z,12.69
2023-11-13T05:12:42.470Z,12.69
2023-11-13T05:15:09.478Z,12.69
2023-11-13T05:17:39.696Z,12.68
2023-11-13T05:20:08.018Z,12.70
2023-11-13T05:22:35.135Z,12.70
2023-11-13T05:25:02.231Z,12.70
2023-11-13T05:27:28.828Z,12.70
2023-11-13T05:29:55.347Z,12.69
2023-11-13T05:32:21.971Z,12.70
2023-11-13T05:34:49.906Z,12.70
2023-11-13T05:37:16.639Z,12.70
2023-11-13T05:39:43.186Z,12.69
2023-11-13T05:42:09.760Z,12.66
2023-11-13T05:44:37.389Z,12.65
2023-11-13T05:47:05.084Z,12.63
2023-11-13T05:49:34.776Z,12.60
2023-11-13T05:52:01.593Z,12.62
2023-11-13T05:54:28.982Z,12.67
2023-11-13T05:56:56.057Z,12.71
2023-11-13T05:59:22.685Z,12.76
2023-11-13T06:01:50.403Z,12.73
2023-11-13T06:04:17.394Z,12.74
2023-11-13T06:06:47.036Z,12.80
2023-11-13T06:09:14.075Z,12.87
2023-11-13T06:11:40.649Z,12.94
2023-11-13T06:14:08.283Z,12.86
2023-11-13T06:16:35.282Z,12.75
2023-11-13T06:19:02.961Z,12.63
2023-11-13T06:21:29.601Z,12.56
2023-11-13T06:23:56.109Z,12.64
2023-11-13T06:26:22.677Z,12.62
2023-11-13T06:28:49.487Z,12.82
2023-11-13T06:31:17.934Z,13.00
2023-11-13T06:33:44.721Z,12.93
2023-11-13T06:36:11.410Z,12.87
2023-11-13T06:38:38.704Z,12.78
2023-11-13T06:41:05.832Z,12.71
2023-11-13T06:43:34.108Z,12.76
2023-11-13T06:46:01.248Z,12.83
2023-11-13T06:48:27.992Z,12.86
2023-11-13T06:50:54.449Z,12.89
2023-11-13T06:53:21.157Z,13.06
2023-11-13T06:55:49.174Z,13.23
2023-11-13T06:58:15.992Z,13.32
2023-11-13T07:00:42.693Z,13.24
2023-11-13T07:03:11.818Z,13.26
2023-11-13T07:05:39.007Z,13.18
2023-11-13T07:08:05.674Z,13.19
2023-11-13T07:10:35.633Z,13.24
2023-11-13T07:13:02.550Z,13.22
2023-11-13T07:15:31.171Z,13.17
2023-11-13T07:17:57.874Z,13.20
2023-11-13T07:20:24.367Z,13.25
2023-11-13T07:22:52.124Z,13.32
2023-11-13T07:25:18.880Z,13.37
2023-11-13T07:27:45.778Z,13.26
2023-11-13T07:30:12.593Z,13.09
2023-11-13T07:32:40.386Z,13.04
2023-11-13T07:35:09.151Z,13.04
2023-11-13T07:37:36.236Z,13.02
2023-11-13T07:40:02.945Z,13.00
2023-11-13T07:42:30.621Z,12.95
2023-11-13T07:44:59.645Z,13.01
2023-11-13T07:47:28.956Z,13.07
2023-11-13T07:49:59.515Z,13.17
2023-11-13T07:52:29.376Z,13.30
2023-11-13T07:54:57.212Z,13.28
2023-11-13T07:57:24.488Z,13.25
2023-11-13T07:59:52.528Z,13.33
2023-11-13T08:02:21.242Z,13.35
2023-11-13T08:04:48.091Z,13.36
2023-11-13T08:07:23.347Z,13.41
2023-11-13T08:09:52.661Z,13.53
2023-11-13T08:12:19.955Z,13.61
2023-11-13T08:14:47.859Z,13.66
2023-11-13T08:17:14.597Z,13.66
2023-11-13T08:19:42.883Z,13.69
2023-11-13T08:22:09.540Z,13.73
2023-11-13T08:24:36.531Z,13.78
2023-11-13T08:27:04.996Z,13.83
2023-11-13T08:29:34.070Z,13.92
2023-11-13T08:32:01.827Z,14.03
2023-11-13T08:34:28.769Z,14.10
2023-11-13T08:36:55.452Z,14.11
2023-11-13T08:39:23.866Z,14.18
2023-11-13T08:41:50.443Z,14.28
2023-11-13T08:44:17.002Z,14.33
2023-11-13T08:46:44.264Z,14.38
2023-11-13T08:49:10.846Z,14.46
2023-11-13T08:51:39.989Z,14.52
2023-11-13T08:54:06.639Z,14.57
2023-11-13T08:56:33.635Z,14.55
2023-11-13T08:59:01.598Z,14.59
2023-11-13T09:01:28.890Z,14.69
2023-11-13T09:04:01.630Z,14.72
2023-11-13T09:06:28.983Z,14.74
2023-11-13T09:08:55.554Z,14.76
2023-11-13T09:11:27.651Z,14.80
2023-11-13T09:13:54.163Z,14.80
2023-11-13T09:16:21.744Z,14.79
2023-11-13T09:18:50.156Z,14.79
2023-11-13T09:21:20.592Z,14.77
2023-11-13T09:23:47.758Z,14.79
2023-11-13T09:26:14.301Z,14.84
2023-11-13T09:28:40.943Z,14.88
2023-11-13T09:31:10.906Z,14.90
2023-11-13T09:33:40.778Z,14.94
2023-11-13T09:36:08.943Z,14.95
2023-11-13T09:38:35.734Z,14.97
2023-11-13T09:41:05.051Z,14.97
2023-11-13T09:43:38.087Z,15.02
2023-11-13T09:46:09.717Z,15.05
2023-11-13T09:48:45.078Z,15.06
2023-11-13T09:51:27.163Z,15.10
2023-11-13T09:53:58.095Z,15.12
2023-11-13T09:56:28.838Z,15.15
2023-11-13T09:58:58.009Z,15.19
2023-11-13T10:01:24.893Z,15.24
2023-11-13T10:03:51.924Z,15.29
2023-11-13T10:06:19.925Z,15.34
2023-11-13T10:08:48.332Z,15.38
2023-11-13T10:11:15.181Z,15.40
2023-11-13T10:13:42.466Z,15.44
2023-11-13T10:16:23.840Z,15.46
2023-11-13T10:18:53.516Z,15.51
2023-11-13T10:21:21.545Z,15.54
2023-11-13T10:23:50.472Z,15.58
2023-11-13T10:26:26.357Z,15.61
2023-11-13T10:28:52.879Z,15.66
2023-11-13T10:31:24.876Z,15.70
2023-11-13T10:34:04.045Z,15.72
2023-11-13T10:36:33.700Z,15.73
2023-11-13T10:39:00.834Z,15.74
2023-11-13T10:41:34.939Z,15.75
2023-11-13T10:44:20.701Z,15.78
2023-11-13T10:46:47.304Z,15.82
2023-11-13T10:49:14.758Z,15.86
2023-11-13T10:51:44.250Z,15.91
2023-11-13T10:54:12.685Z,15.93
2023-11-13T10:56:40.088Z,15.95
2023-11-13T10:59:09.897Z,15.95
2023-11-13T11:01:43.283Z,15.96
2023-11-13T11:04:11.714Z,15.93
2023-11-13T11:06:41.442Z,15.88
2023-11-13T11:09:09.052Z,15.85
2023-11-13T11:11:36.290Z,15.82
2023-11-13T11:14:12.455Z,15.79
2023-11-13T11:16:39.884Z,15.81
2023-11-13T11:19:31.213Z,15.79
2023-11-13T11:22:05.695Z,15.80
2023-11-13T11:24:58.674Z,15.80
2023-11-13T11:27:35.430Z,15.78
2023-11-13T11:30:02.262Z,15.79
2023-11-13T11:32:32.594Z,15.82
2023-11-13T11:35:05.539Z,15.85
2023-11-13T11:37:32.175Z,15.85
2023-11-13T11:40:05.150Z,15.81
2023-11-13T11:42:33.174Z,15.82
2023-11-13T11:45:03.097Z,15.85
2023-11-13T11:47:30.490Z,15.90
2023-11-13T11:50:01.063Z,15.91
2023-11-13T11:52:59.139Z,15.86
2023-11-13T11:55:27.165Z,15.88
2023-11-13T11:57:54.208Z,15.90
2023-11-13T12:00:22.900Z,15.93
2023-11-13T12:02:54.404Z,15.96
2023-11-13T12:05:21.578Z,15.98
2023-11-13T12:07:52.088Z,15.99
2023-11-13T12:10:22.310Z,15.99
2023-11-13T12:12:50.386Z,16.01
2023-11-13T12:15:17.076Z,16.00
2023-11-13T12:17:44.513Z,15.98
2023-11-13T12:20:20.324Z,15.96
2023-11-13T12:22:49.673Z,15.93
2023-11-13T12:25:17.015Z,15.84
2023-11-13T12:27:50.279Z,15.82
2023-11-13T12:30:25.212Z,15.81
2023-11-13T12:32:52.787Z,15.78
2023-11-13T12:35:21.783Z,15.78
2023-11-13T12:37:49.824Z,15.78
2023-11-13T12:40:22.020Z,15.79
2023-11-13T12:42:49.512Z,15.80
2023-11-13T12:45:18.593Z,15.86
2023-11-13T12:47:48.262Z,15.88
2023-11-13T12:50:20.443Z,15.92
2023-11-13T12:52:53.489Z,15.93
2023-11-13T12:55:21.401Z,15.95
2023-11-13T12:57:49.526Z,15.98
2023-11-13T13:00:17.213Z,15.98
2023-11-13T13:02:50.596Z,15.98
2023-11-13T13:05:29.098Z,15.98
2023-11-13T13:07:59.839Z,16.02
2023-11-13T13:10:26.841Z,16.05
2023-11-13T13:12:53.524Z,16.08
2023-11-13T13:15:22.376Z,16.11
2023-11-13T13:17:52.183Z,16.11
2023-11-13T13:20:20.180Z,16.17
2023-11-13T13:22:52.732Z,16.17
2023-11-13T13:25:26.219Z,16.17
2023-11-13T13:27:53.200Z,16.15
2023-11-13T13:30:23.040Z,16.15
2023-11-13T13:32:51.266Z,16.14
2023-11-13T13:35:19.922Z,16.12
2023-11-13T13:37:46.480Z,16.10
2023-11-13T13:40:14.288Z,16.10
2023-11-13T13:42:41.908Z,16.10
2023-11-13T13:45:17.767Z,16.11
2023-11-13T13:47:49.728Z,16.13
2023-11-13T13:50:20.807Z,16.07
2023-11-13T13:52:58.507Z,16.11
2023-11-13T13:55:29.434Z,16.11
2023-11-13T13:57:58.601Z,16.14
2023-11-13T14:03:01.099Z,16.12
2023-11-13T14:05:28.308Z,16.09
2023-11-13T14:07:54.925Z,16.11
2023-11-13T14:10:22.728Z,16.12
2023-11-13T14:12:51.362Z,16.14
2023-11-13T14:15:18.382Z,16.14
2023-11-13T14:17:45.303Z,16.14
2023-11-13T14:20:16.625Z,16.16
2023-11-13T14:22:49.595Z,16.15
2023-11-13T14:25:21.537Z,16.14
2023-11-13T14:27:55.042Z,16.07
2023-11-13T14:30:23.868Z,16.08
2023-11-13T14:32:53.903Z,16.08
2023-11-13T14:35:21.722Z,16.04
2023-11-13T14:37:54.600Z,16.05
2023-11-13T14:40:22.107Z,16.05
2023-11-13T14:42:48.645Z,16.07
2023-11-13T14:45:18.210Z,16.09
2023-11-13T14:47:48.813Z,16.12
2023-11-13T14:50:21.637Z,16.13
2023-11-13T14:52:53.164Z,16.12
2023-11-13T14:55:22.963Z,16.13
2023-11-13T14:57:51.893Z,16.14
2023-11-13T15:00:21.452Z,16.14
2023-11-13T15:02:50.693Z,16.16
2023-11-13T15:05:18.765Z,16.18
2023-11-13T15:07:46.337Z,16.22
2023-11-13T15:10:14.499Z,16.22
2023-11-13T15:12:41.786Z,16.23
2023-11-13T15:15:14.298Z,16.26
2023-11-13T15:17:42.592Z,16.27
2023-11-13T15:20:15.583Z,16.29
2023-11-13T15:25:15.233Z,16.34
2023-11-13T15:27:41.830Z,16.33
2023-11-13T15:30:12.549Z,16.33
2023-11-13T15:32:41.139Z,16.32
2023-11-13T15:35:09.219Z,16.30
2023-11-13T15:37:40.924Z,16.29
2023-11-13T15:40:09.612Z,16.26
2023-11-13T15:42:37.016Z,16.23
2023-11-13T15:45:03.999Z,16.21
2023-11-13T15:47:30.621Z,16.21
2023-11-13T15:49:58.724Z,16.23
2023-11-13T15:52:26.238Z,16.24
2023-11-13T15:54:52.984Z,16.28
2023-11-13T15:57:19.479Z,16.31
2023-11-13T15:59:45.940Z,16.33
2023-11-13T16:02:12.994Z,16.35
2023-11-13T16:04:39.763Z,16.35
2023-11-13T16:07:07.993Z,16.37
2023-11-13T16:09:35.017Z,16.39
2023-11-13T16:12:02.297Z,16.43
2023-11-13T16:14:33.346Z,16.44
2023-11-13T16:17:01.110Z,16.42
2023-11-13T16:19:29.383Z,16.45
2023-11-13T16:21:55.989Z,16.48
2023-11-13T16:24:23.182Z,16.51
2023-11-13T16:26:53.622Z,16.53
2023-11-13T16:29:23.022Z,16.51
2023-11-13T16:31:50.689Z,16.52
2023-11-13T16:34:19.291Z,16.51
2023-11-13T16:36:45.892Z,16.52
2023-11-13T16:39:14.037Z,16.53
2023-11-13T16:41:41.138Z,16.54
2023-11-13T16:44:07.662Z,16.57
2023-11-13T16:46:34.335Z,16.63
2023-11-13T16:49:06.503Z,16.66
2023-11-13T16:51:33.216Z,16.70
2023-11-13T16:53:59.798Z,16.77
2023-11-13T16:56:26.712Z,16.80
2023-11-13T16:58:53.856Z,16.81
2023-11-13T17:01:22.194Z,16.84
2023-11-13T17:03:48.827Z,16.83
2023-11-13T17:06:16.839Z,16.81
2023-11-13T17:08:43.628Z,16.74
2023-11-13T17:11:10.747Z,16.69
2023-11-13T17:13:38.219Z,16.65
2023-11-13T17:16:10.052Z,16.60
2023-11-13T17:18:36.957Z,16.61
2023-11-13T17:21:04.425Z,16.63
2023-11-13T17:23:30.942Z,16.64
2023-11-13T17:25:59.184Z,16.67
2023-11-13T17:28:27.293Z,16.74
2023-11-13T17:30:53.824Z,16.78
2023-11-13T17:33:23.701Z,16.82
2023-11-13T17:35:51.404Z,16.82
2023-11-13T17:38:18.157Z,16.84
2023-11-13T17:40:44.833Z,16.84
2023-11-13T17:43:11.909Z,16.76
2023-11-13T17:45:38.460Z,16.47
2023-11-13T17:48:05.989Z,16.09
2023-11-13T17:50:32.665Z,15.52
2023-11-13T17:52:59.150Z,15.05
2023-11-13T17:55:26.273Z,14.73
2023-11-13T17:57:52.916Z,14.50
2023-11-13T18:00:19.803Z,14.34
2023-11-13T18:02:46.746Z,14.22
2023-11-13T18:05:13.502Z,14.07
2023-11-13T18:07:41.518Z,13.96
2023-11-13T18:10:09.304Z,13.91
2023-11-13T18:12:35.881Z,13.81
2023-11-13T18:15:04.587Z,13.73
2023-11-13T18:17:32.267Z,13.69
2023-11-13T18:19:58.903Z,13.73
2023-11-13T18:22:25.495Z,13.69
2023-11-13T18:24:52.040Z,13.60
2023-11-13T18:27:18.601Z,13.55
2023-11-13T18:29:45.150Z,13.51
2023-11-13T18:32:12.028Z,13.51
2023-11-13T18:34:38.722Z,13.53
2023-11-13T18:37:05.348Z,13.51
2023-11-13T18:39:31.905Z,13.57
2023-11-13T18:41:58.456Z,13.65
2023-11-13T18:44:25.189Z,13.73
2023-11-13T18:46:51.825Z,13.80
2023-11-13T18:49:20.453Z,13.84
2023-11-13T18:51:47.563Z,13.90
2023-11-13T18:54:14.233Z,13.94
2023-11-13T18:56:40.815Z,13.94
2023-11-13T18:59:07.397Z,13.91
2023-11-13T19:01:34.551Z,13.86
2023-11-13T19:04:01.481Z,13.83
2023-11-13T19:06:28.690Z,13.82
2023-11-13T19:08:55.383Z,13.82
2023-11-13T19:11:23.085Z,13.81
2023-11-13T19:13:52.159Z,13.82
2023-11-13T19:16:19.152Z,13.81
2023-11-13T19:18:46.158Z,13.79
2023-11-13T19:21:12.734Z,13.78
2023-11-13T19:23:40.119Z,13.76
2023-11-13T19:26:07.762Z,13.79
2023-11-13T19:28:34.453Z,13.78
2023-11-13T19:31:01.010Z,-140.43
2023-11-13T19:33:27.556Z,-140.43
2023-11-13T19:35:54.352Z,13.78
2023-11-13T19:38:20.937Z,13.71
2023-11-13T19:40:47.443Z,13.71
2023-11-13T19:43:14.093Z,13.72
2023-11-13T19:45:40.696Z,-140.43
2023-11-13T19:48:07.775Z,-140.43
2023-11-13T19:50:35.628Z,-140.43
2023-11-13T19:53:03.424Z,-140.43
2023-11-13T19:55:30.151Z,13.71
2023-11-13T19:57:56.785Z,13.62
2023-11-13T20:00:24.735Z,13.62
2023-11-13T20:02:52.686Z,13.61
2023-11-13T20:05:19.337Z,13.58
2023-11-13T20:07:46.274Z,13.53
2023-11-13T20:10:13.354Z,13.48
2023-11-13T20:12:40.204Z,13.47
2023-11-13T20:15:08.149Z,13.46
2023-11-13T20:17:35.080Z,13.43
2023-11-13T20:20:01.969Z,13.39
2023-11-13T20:22:28.578Z,13.36
2023-11-13T20:24:55.088Z,13.33
2023-11-13T20:27:22.103Z,13.30
2023-11-13T20:29:55.194Z,13.26
2023-11-13T20:32:27.259Z,13.24
2023-11-13T20:34:53.881Z,13.17
2023-11-13T20:37:20.984Z,13.17
2023-11-13T20:39:47.554Z,13.14
2023-11-13T20:42:15.771Z,13.12
2023-11-13T20:44:42.385Z,13.08
2023-11-13T20:47:08.998Z,13.06
2023-11-13T20:49:36.382Z,13.03
2023-11-13T20:52:04.449Z,13.00
2023-11-13T20:54:30.918Z,13.00
2023-11-13T20:56:57.588Z,13.00
2023-11-13T20:59:24.738Z,13.02
2023-11-13T21:01:51.318Z,12.97
2023-11-13T21:04:19.265Z,12.91
2023-11-13T21:06:46.341Z,12.88
2023-11-13T21:09:13.706Z,12.85
2023-11-13T21:11:40.331Z,12.76
2023-11-13T21:14:06.886Z,12.73
2023-11-13T21:16:33.522Z,12.72
2023-11-13T21:19:00.067Z,12.71
2023-11-13T21:21:28.341Z,12.68
2023-11-13T21:23:58.306Z,12.65
2023-11-13T21:26:24.809Z,12.61
2023-11-13T21:28:51.410Z,12.55
2023-11-13T21:31:17.901Z,12.53
2023-11-13T21:33:44.595Z,12.54
2023-11-13T21:36:11.414Z,12.53
2023-11-13T21:38:38.921Z,12.52
2023-11-13T21:41:07.676Z,12.49
2023-11-13T21:43:35.866Z,12.47
2023-11-13T21:46:05.292Z,12.42
2023-11-13T21:48:31.927Z,12.37
2023-11-13T21:50:58.515Z,12.37
2023-11-13T21:53:26.782Z,12.38
2023-11-13T21:55:55.057Z,12.38
2023-11-13T21:58:22.037Z,12.39
2023-11-13T22:00:48.716Z,12.35
2023-11-13T22:03:15.472Z,12.36
2023-11-13T22:05:42.042Z,12.31
2023-11-13T22:08:09.312Z,12.28
2023-11-13T22:10:37.620Z,12.23
2023-11-13T22:13:05.139Z,12.24
2023-11-13T22:15:31.661Z,12.19
2023-11-13T22:17:58.220Z,12.15
2023-11-13T22:20:28.779Z,12.12
2023-11-13T22:22:56.763Z,12.08
2023-11-13T22:25:23.459Z,12.04
2023-11-13T22:27:52.025Z,12.00
2023-11-13T22:30:18.590Z,11.99
2023-11-13T22:32:45.390Z,11.95
2023-11-13T22:35:12.021Z,11.92
2023-11-13T22:37:38.704Z,11.89
2023-11-13T22:40:06.682Z,11.89
2023-11-13T22:42:34.244Z,11.88
2023-11-13T22:45:01.402Z,11.87
2023-11-13T22:47:27.985Z,11.87
2023-11-13T22:49:54.593Z,11.89
2023-11-13T22:52:22.323Z,11.88
2023-11-13T22:54:52.224Z,11.84
2023-11-13T22:57:19.759Z,11.82
2023-11-13T22:59:47.925Z,11.79
2023-11-13T23:02:15.064Z,11.78
2023-11-13T23:04:41.785Z,11.75
2023-11-13T23:07:13.227Z,11.74
2023-11-13T23:09:39.995Z,11.72
2023-11-13T23:12:06.636Z,11.74
2023-11-13T23:14:33.104Z,11.75
2023-11-13T23:17:00.861Z,11.73
2023-11-13T23:19:27.698Z,11.70
2023-11-13T23:22:01.895Z,11.68
2023-11-13T23:24:31.191Z,11.66
2023-11-13T23:26:58.029Z,11.68
2023-11-13T23:29:24.550Z,11.69
2023-11-13T23:31:51.501Z,11.70
2023-11-13T23:34:18.555Z,11.68
2023-11-13T23:36:45.202Z,11.68
2023-11-13T23:39:11.822Z,11.62
2023-11-13T23:41:38.318Z,11.63
2023-11-13T23:44:05.336Z,11.63
2023-11-13T23:46:31.973Z,11.60
2023-11-13T23:48:58.554Z,11.60
2023-11-13T23:51:25.806Z,11.59
2023-11-13T23:53:53.679Z,11.56
2023-11-13T23:56:20.507Z,11.56
2023-11-13T23:58:47.351Z,11.58
